createdAt,value
2022-09-03T00:00:55.676Z,15.32
2022-09-03T00:01:55.682Z,15.32
2022-09-03T00:02:55.668Z,15.25
2022-09-03T00:03:55.640Z,15.33
2022-09-03T00:04:55.627Z,15.30
2022-09-03T00:05:55.624Z,15.28
2022-09-03T00:06:55.585Z,15.33
2022-09-03T00:07:55.603Z,15.36
2022-09-03T00:08:55.580Z,15.35
2022-09-03T00:09:55.561Z,15.28
2022-09-03T00:10:55.541Z,15.32
2022-09-03T00:11:55.533Z,15.40
2022-09-03T00:12:55.518Z,15.27
2022-09-03T00:13:55.538Z,15.33
2022-09-03T00:14:55.502Z,15.32
2022-09-03T00:15:55.559Z,15.28
2022-09-03T00:16:55.475Z,15.35
2022-09-03T00:17:55.460Z,15.39
2022-09-03T00:18:55.467Z,15.28
2022-09-03T00:19:55.437Z,15.32
2022-09-03T00:20:55.472Z,15.36
2022-09-03T00:21:55.428Z,15.35
2022-09-03T00:22:55.418Z,15.39
2022-09-03T00:23:55.407Z,15.36
2022-09-03T00:24:55.400Z,15.33
2022-09-03T00:25:55.379Z,15.32
2022-09-03T00:26:55.371Z,15.35
2022-09-03T00:27:55.382Z,15.28
2022-09-03T00:28:55.427Z,15.24
2022-09-03T00:29:55.325Z,15.33
2022-09-03T00:30:55.364Z,15.33
2022-09-03T00:31:55.316Z,15.28
2022-09-03T00:32:55.326Z,15.28
2022-09-03T00:33:55.297Z,15.35
2022-09-03T00:34:55.267Z,15.28
2022-09-03T00:35:55.264Z,15.36
2022-09-03T00:36:55.249Z,15.27
2022-09-03T00:37:55.233Z,15.19
2022-09-03T00:38:55.245Z,15.18
2022-09-03T00:39:55.263Z,15.22
2022-09-03T00:40:55.204Z,15.28
2022-09-03T00:41:55.216Z,15.12
2022-09-03T00:42:55.183Z,15.15
2022-09-03T00:43:55.182Z,15.19
2022-09-03T00:44:55.168Z,15.12
2022-09-03T00:45:55.188Z,15.24
2022-09-03T00:46:55.133Z,15.15
2022-09-03T00:47:55.203Z,15.18
2022-09-03T00:48:55.127Z,15.18
2022-09-03T00:49:55.106Z,15.12
2022-09-03T00:50:55.098Z,15.17
2022-09-03T00:51:55.074Z,15.15
2022-09-03T00:52:55.077Z,15.07
2022-09-03T00:53:55.121Z,15.22
2022-09-03T00:54:55.054Z,15.14
2022-09-03T00:55:55.044Z,15.14
2022-09-03T00:56:55.019Z,15.17
2022-09-03T00:57:55.010Z,15.15
2022-09-03T00:58:55.023Z,15.14
2022-09-03T00:59:55.013Z,15.09
2022-09-03T01:00:54.973Z,15.03
2022-09-03T01:01:55.082Z,15.11
2022-09-03T01:02:55.005Z,15.06
2022-09-03T01:03:54.937Z,15.03
2022-09-03T01:04:54.949Z,15.03
2022-09-03T01:05:57.467Z,15.07
2022-09-03T01:06:55.907Z,15.04
2022-09-03T01:07:54.900Z,15.03
2022-09-03T01:08:54.887Z,15.00
2022-09-03T01:09:54.891Z,15.03
2022-09-03T01:10:54.874Z,15.09
2022-09-03T01:11:54.872Z,14.97
2022-09-03T01:12:54.843Z,15.03
2022-09-03T01:13:54.847Z,15.06
2022-09-03T01:14:54.842Z,14.97
2022-09-03T01:15:54.882Z,14.97
2022-09-03T01:16:54.803Z,14.97
2022-09-03T01:17:54.901Z,14.99
2022-09-03T01:18:54.776Z,15.00
2022-09-03T01:19:54.763Z,14.96
2022-09-03T01:20:54.762Z,14.97
2022-09-03T01:21:54.744Z,15.02
2022-09-03T01:22:54.750Z,14.95
2022-09-03T01:23:54.743Z,15.02
2022-09-03T01:24:54.706Z,14.91
2022-09-03T01:25:54.710Z,14.95
2022-09-03T01:26:54.687Z,14.88
2022-09-03T01:27:54.731Z,15.02
2022-09-03T01:28:54.667Z,14.87
2022-09-03T01:29:54.682Z,14.89
2022-09-03T01:30:54.742Z,14.96
2022-09-03T01:31:54.630Z,14.88
2022-09-03T01:32:54.618Z,14.95
2022-09-03T01:33:54.610Z,14.81
2022-09-03T01:34:54.604Z,14.77
2022-09-03T01:35:54.623Z,14.79
2022-09-03T01:36:54.567Z,14.78
2022-09-03T01:37:54.563Z,14.81
2022-09-03T01:38:54.549Z,14.65
2022-09-03T01:39:54.605Z,14.74
2022-09-03T01:40:54.528Z,14.74
2022-09-03T01:41:54.539Z,14.74
2022-09-03T01:42:54.513Z,14.66
2022-09-03T01:43:54.519Z,14.63
2022-09-03T01:44:54.499Z,14.73
2022-09-03T01:45:54.539Z,14.63
2022-09-03T01:46:54.470Z,14.68
2022-09-03T01:47:54.449Z,14.73
2022-09-03T01:48:54.431Z,14.70
2022-09-03T01:49:54.501Z,14.65
2022-09-03T01:50:54.432Z,14.68
2022-09-03T01:51:54.446Z,14.66
2022-09-03T01:52:54.393Z,14.66
2022-09-03T01:53:54.375Z,14.70
2022-09-03T01:54:54.395Z,14.70
2022-09-03T01:55:54.354Z,14.66
2022-09-03T01:56:54.342Z,14.55
2022-09-03T01:57:54.368Z,14.70
2022-09-03T01:58:54.320Z,14.56
2022-09-03T01:59:54.314Z,14.59
2022-09-03T02:00:54.322Z,14.56
2022-09-03T02:01:54.368Z,14.59
2022-09-03T02:02:54.331Z,14.59
2022-09-03T02:03:54.264Z,14.48
2022-09-03T02:04:54.253Z,14.47
2022-09-03T02:05:54.256Z,14.50
2022-09-03T02:06:54.229Z,14.53
2022-09-03T02:07:54.237Z,14.48
2022-09-03T02:08:54.248Z,14.43
2022-09-03T02:09:54.192Z,14.51
2022-09-03T02:10:54.199Z,14.45
2022-09-03T02:11:54.177Z,14.47
2022-09-03T02:12:54.163Z,14.45
2022-09-03T02:13:54.155Z,14.48
2022-09-03T02:14:54.167Z,14.50
2022-09-03T02:15:54.182Z,14.44
2022-09-03T02:16:54.111Z,14.45
2022-09-03T02:17:54.098Z,14.48
2022-09-03T02:18:54.092Z,14.45
2022-09-03T02:19:54.077Z,14.43
2022-09-03T02:20:54.127Z,14.43
2022-09-03T02:21:54.056Z,14.45
2022-09-03T02:22:54.050Z,14.45
2022-09-03T02:23:54.034Z,14.47
2022-09-03T02:24:54.020Z,14.50
2022-09-03T02:25:54.023Z,14.44
2022-09-03T02:26:54.001Z,14.47
2022-09-03T02:27:54.000Z,14.40
2022-09-03T02:28:53.987Z,14.44
2022-09-03T02:29:53.977Z,14.45
2022-09-03T02:30:54.012Z,14.47
2022-09-03T02:31:53.943Z,14.45
2022-09-03T02:32:53.966Z,14.44
2022-09-03T02:33:54.070Z,14.45
2022-09-03T02:34:53.912Z,14.45
2022-09-03T02:35:53.931Z,14.44
2022-09-03T02:36:53.904Z,14.45
2022-09-03T02:37:53.881Z,14.44
2022-09-03T02:38:53.855Z,14.41
2022-09-03T02:39:53.943Z,14.40
2022-09-03T02:40:53.878Z,14.32
2022-09-03T02:41:53.849Z,14.33
2022-09-03T02:42:53.858Z,14.30
2022-09-03T02:43:53.800Z,14.30
2022-09-03T02:44:53.827Z,14.28
2022-09-03T02:45:53.842Z,14.36
2022-09-03T02:46:53.780Z,14.38
2022-09-03T02:47:53.752Z,14.30
2022-09-03T02:48:53.746Z,14.22
2022-09-03T02:49:53.747Z,14.29
2022-09-03T02:50:53.717Z,14.26
2022-09-03T02:51:53.722Z,14.29
2022-09-03T02:52:53.696Z,14.28
2022-09-03T02:53:53.683Z,14.26
2022-09-03T02:54:53.686Z,14.19
2022-09-03T02:55:53.667Z,14.20
2022-09-03T02:56:53.679Z,14.22
2022-09-03T02:57:53.645Z,14.15
2022-09-03T02:58:53.633Z,14.25
2022-09-03T02:59:53.622Z,14.19
2022-09-03T03:00:53.643Z,14.23
2022-09-03T03:01:53.628Z,14.18
2022-09-03T03:02:53.618Z,14.20
2022-09-03T03:03:53.596Z,14.20
2022-09-03T03:04:53.564Z,14.15
2022-09-03T03:05:53.547Z,14.14
2022-09-03T03:06:53.568Z,14.19
2022-09-03T03:07:53.543Z,14.18
2022-09-03T03:08:53.553Z,14.11
2022-09-03T03:09:53.506Z,14.18
2022-09-03T03:10:53.528Z,14.19
2022-09-03T03:11:53.499Z,14.18
2022-09-03T03:12:53.473Z,14.07
2022-09-03T03:13:53.467Z,14.01
2022-09-03T03:14:53.471Z,14.08
2022-09-03T03:15:53.476Z,14.11
2022-09-03T03:16:53.521Z,14.13
2022-09-03T03:17:53.407Z,14.03
2022-09-03T03:18:53.405Z,14.04
2022-09-03T03:19:53.393Z,14.08
2022-09-03T03:20:53.421Z,14.05
2022-09-03T03:21:53.376Z,14.03
2022-09-03T03:22:53.348Z,14.04
2022-09-03T03:23:53.335Z,14.07
2022-09-03T03:24:53.329Z,14.03
2022-09-03T03:25:53.320Z,14.03
2022-09-03T03:26:53.406Z,13.96
2022-09-03T03:27:53.299Z,13.96
2022-09-03T03:28:53.289Z,13.95
2022-09-03T03:29:53.273Z,13.93
2022-09-03T03:30:53.289Z,13.96
2022-09-03T03:31:53.268Z,13.93
2022-09-03T03:32:53.261Z,13.92
2022-09-03T03:33:53.242Z,13.90
2022-09-03T03:34:53.221Z,13.80
2022-09-03T03:35:53.218Z,13.90
2022-09-03T03:36:53.204Z,13.82
2022-09-03T03:37:53.176Z,13.77
2022-09-03T03:38:53.201Z,13.74
2022-09-03T03:39:53.235Z,13.72
2022-09-03T03:40:53.153Z,13.74
2022-09-03T03:41:53.158Z,13.80
2022-09-03T03:42:53.145Z,13.82
2022-09-03T03:43:53.109Z,13.75
2022-09-03T03:44:53.094Z,13.80
2022-09-03T03:45:53.149Z,13.75
2022-09-03T03:46:53.110Z,13.77
2022-09-03T03:47:53.066Z,13.74
2022-09-03T03:48:53.071Z,13.71
2022-09-03T03:49:53.035Z,13.78
2022-09-03T03:50:53.048Z,13.77
2022-09-03T03:51:53.042Z,13.74
2022-09-03T03:52:53.006Z,13.78
2022-09-03T03:53:52.992Z,13.78
2022-09-03T03:54:52.994Z,13.85
2022-09-03T03:55:52.973Z,13.75
2022-09-03T03:56:55.804Z,13.83
2022-09-03T03:57:52.967Z,13.85
2022-09-03T03:58:52.944Z,13.80
2022-09-03T03:59:52.923Z,13.78
2022-09-03T04:00:53.001Z,13.82
2022-09-03T04:01:52.912Z,13.71
2022-09-03T04:02:53.021Z,13.77
2022-09-03T04:03:52.879Z,13.75
2022-09-03T04:04:52.867Z,13.70
2022-09-03T04:05:52.852Z,13.70
2022-09-03T04:06:52.842Z,13.65
2022-09-03T04:07:52.863Z,13.72
2022-09-03T04:08:52.819Z,13.78
2022-09-03T04:09:52.808Z,13.72
2022-09-03T04:10:52.791Z,13.74
2022-09-03T04:11:52.779Z,13.75
2022-09-03T04:12:52.789Z,13.74
2022-09-03T04:13:52.762Z,13.75
2022-09-03T04:14:52.754Z,13.83
2022-09-03T04:15:52.739Z,13.75
2022-09-03T04:16:52.882Z,13.75
2022-09-03T04:17:52.727Z,13.77
2022-09-03T04:18:52.704Z,13.71
2022-09-03T04:19:52.703Z,13.71
2022-09-03T04:20:52.678Z,13.71
2022-09-03T04:21:52.673Z,13.74
2022-09-03T04:22:52.674Z,13.74
2022-09-03T04:23:52.645Z,13.71
2022-09-03T04:24:52.648Z,13.80
2022-09-03T04:25:52.628Z,13.68
2022-09-03T04:26:52.625Z,13.72
2022-09-03T04:27:52.617Z,13.70
2022-09-03T04:28:52.593Z,13.63
2022-09-03T04:29:52.575Z,13.57
2022-09-03T04:30:52.583Z,13.56
2022-09-03T04:31:52.562Z,13.63
2022-09-03T04:32:52.699Z,13.64
2022-09-03T04:33:52.595Z,13.63
2022-09-03T04:34:52.519Z,13.53
2022-09-03T04:35:52.523Z,13.63
2022-09-03T04:36:53.057Z,13.64
2022-09-03T04:37:52.490Z,13.63
2022-09-03T04:38:52.466Z,13.63
2022-09-03T04:39:52.558Z,13.55
2022-09-03T04:40:52.466Z,13.60
2022-09-03T04:41:52.425Z,13.63
2022-09-03T04:42:52.440Z,13.53
2022-09-03T04:43:52.408Z,13.64
2022-09-03T04:44:52.403Z,13.65
2022-09-03T04:45:52.472Z,13.72
2022-09-03T04:46:52.374Z,13.70
2022-09-03T04:47:52.362Z,13.67
2022-09-03T04:48:52.347Z,13.71
2022-09-03T04:49:52.350Z,13.64
2022-09-03T04:50:52.340Z,13.70
2022-09-03T04:51:52.319Z,13.65
2022-09-03T04:52:52.310Z,13.67
2022-09-03T04:53:52.302Z,13.65
2022-09-03T04:54:52.317Z,13.63
2022-09-03T04:55:52.286Z,13.60
2022-09-03T04:56:52.261Z,13.63
2022-09-03T04:57:52.253Z,13.68
2022-09-03T04:58:52.242Z,13.67
2022-09-03T04:59:52.226Z,13.71
2022-09-03T05:00:52.322Z,13.68
2022-09-03T05:01:52.247Z,13.68
2022-09-03T05:02:52.192Z,13.72
2022-09-03T05:03:52.174Z,13.72
2022-09-03T05:04:52.176Z,13.70
2022-09-03T05:05:52.593Z,13.77
2022-09-03T05:06:52.143Z,13.74
2022-09-03T05:07:52.128Z,13.77
2022-09-03T05:08:52.147Z,13.80
2022-09-03T05:09:52.118Z,13.82
2022-09-03T05:10:52.115Z,13.74
2022-09-03T05:11:52.135Z,13.78
2022-09-03T05:12:52.077Z,13.74
2022-09-03T05:13:52.066Z,13.78
2022-09-03T05:14:52.051Z,13.82
2022-09-03T05:15:52.049Z,13.78
2022-09-03T05:16:52.846Z,13.78
2022-09-03T05:17:52.034Z,13.86
2022-09-03T05:18:52.000Z,13.86
2022-09-03T05:19:52.004Z,13.88
2022-09-03T05:20:51.996Z,13.78
2022-09-03T05:21:51.962Z,13.89
2022-09-03T05:22:51.963Z,13.89
2022-09-03T05:23:51.954Z,13.83
2022-09-03T05:24:51.963Z,13.89
2022-09-03T05:25:51.934Z,13.88
2022-09-03T05:26:51.940Z,13.96
2022-09-03T05:27:51.900Z,13.89
2022-09-03T05:28:51.889Z,13.92
2022-09-03T05:29:51.915Z,13.86
2022-09-03T05:30:51.899Z,13.86
2022-09-03T05:31:51.917Z,13.89
2022-09-03T05:32:51.848Z,13.90
2022-09-03T05:33:51.847Z,13.95
2022-09-03T05:34:51.812Z,13.93
2022-09-03T05:35:51.826Z,13.96
2022-09-03T05:36:51.829Z,13.95
2022-09-03T05:37:51.791Z,13.90
2022-09-03T05:38:51.793Z,13.92
2022-09-03T05:39:51.820Z,13.95
2022-09-03T05:40:51.764Z,14.00
2022-09-03T05:41:51.735Z,13.97
2022-09-03T05:42:51.745Z,14.03
2022-09-03T05:43:51.721Z,14.04
2022-09-03T05:44:51.702Z,14.05
2022-09-03T05:45:51.753Z,14.00
2022-09-03T05:46:51.675Z,14.10
2022-09-03T05:47:51.673Z,14.08
2022-09-03T05:48:51.682Z,14.07
2022-09-03T05:49:51.656Z,14.14
2022-09-03T05:50:51.630Z,14.18
2022-09-03T05:51:51.631Z,14.22
2022-09-03T05:52:51.606Z,14.13
2022-09-03T05:53:51.602Z,14.22
2022-09-03T05:54:51.594Z,14.19
2022-09-03T05:55:51.576Z,14.15
2022-09-03T05:56:51.573Z,14.22
2022-09-03T05:57:51.558Z,14.10
2022-09-03T05:58:51.558Z,14.20
2022-09-03T05:59:51.601Z,14.14
2022-09-03T06:00:51.519Z,14.20
2022-09-03T06:01:54.669Z,14.13
2022-09-03T06:02:52.675Z,14.13
2022-09-03T06:03:51.498Z,14.19
2022-09-03T06:04:51.464Z,14.25
2022-09-03T06:05:51.487Z,14.22
2022-09-03T06:06:51.477Z,14.25
2022-09-03T06:07:51.433Z,14.30
2022-09-03T06:08:51.431Z,14.33
2022-09-03T06:09:51.458Z,14.30
2022-09-03T06:10:51.401Z,14.37
2022-09-03T06:11:51.693Z,14.28
2022-09-03T06:12:51.373Z,14.32
2022-09-03T06:13:51.371Z,14.30
2022-09-03T06:14:51.350Z,14.28
2022-09-03T06:15:51.346Z,14.33
2022-09-03T06:16:51.411Z,14.33
2022-09-03T06:17:51.313Z,14.29
2022-09-03T06:18:51.309Z,14.45
2022-09-03T06:19:51.300Z,14.43
2022-09-03T06:20:51.284Z,14.40
2022-09-03T06:21:51.282Z,14.47
2022-09-03T06:22:51.264Z,14.45
2022-09-03T06:23:51.268Z,14.50
2022-09-03T06:24:51.237Z,14.45
2022-09-03T06:25:51.235Z,14.44
2022-09-03T06:26:51.376Z,14.43
2022-09-03T06:27:51.222Z,14.44
2022-09-03T06:28:51.195Z,14.43
2022-09-03T06:29:51.221Z,14.53
2022-09-03T06:30:51.232Z,14.45
2022-09-03T06:31:51.272Z,14.61
2022-09-03T06:32:51.193Z,14.68
2022-09-03T06:33:51.159Z,14.73
2022-09-03T06:34:51.124Z,14.77
2022-09-03T06:35:51.203Z,14.77
2022-09-03T06:36:51.122Z,14.81
2022-09-03T06:37:51.088Z,14.78
2022-09-03T06:38:51.094Z,14.82
2022-09-03T06:39:51.232Z,14.81
2022-09-03T06:40:51.072Z,14.87
2022-09-03T06:41:51.103Z,14.95
2022-09-03T06:42:51.072Z,14.91
2022-09-03T06:43:51.029Z,14.91
2022-09-03T06:44:51.031Z,14.89
2022-09-03T06:45:51.088Z,14.95
2022-09-03T06:46:50.988Z,15.02
2022-09-03T06:47:51.013Z,14.91
2022-09-03T06:48:50.969Z,15.03
2022-09-03T06:49:50.977Z,15.02
2022-09-03T06:50:50.975Z,15.04
2022-09-03T06:51:50.938Z,15.07
2022-09-03T06:52:50.935Z,15.14
2022-09-03T06:53:50.930Z,15.19
2022-09-03T06:54:50.896Z,15.27
2022-09-03T06:55:50.894Z,15.33
2022-09-03T06:56:50.911Z,15.32
2022-09-03T06:57:52.903Z,15.27
2022-09-03T06:58:50.855Z,15.39
2022-09-03T06:59:50.841Z,15.35
2022-09-03T07:00:50.926Z,15.30
2022-09-03T07:01:50.928Z,15.40
2022-09-03T07:02:50.830Z,15.44
2022-09-03T07:03:50.803Z,15.51
2022-09-03T07:04:50.790Z,15.58
2022-09-03T07:05:50.775Z,15.64
2022-09-03T07:06:50.761Z,15.64
2022-09-03T07:07:50.755Z,15.65
2022-09-03T07:08:50.769Z,15.75
2022-09-03T07:09:50.726Z,15.79
2022-09-03T07:10:50.722Z,15.92
2022-09-03T07:11:50.703Z,15.91
2022-09-03T07:12:50.704Z,16.02
2022-09-03T07:13:50.682Z,16.05
2022-09-03T07:14:51.089Z,16.06
2022-09-03T07:15:50.713Z,16.10
2022-09-03T07:16:50.651Z,16.08
2022-09-03T07:17:50.648Z,16.13
2022-09-03T07:18:50.625Z,16.20
2022-09-03T07:19:50.608Z,16.13
2022-09-03T07:20:50.600Z,16.17
2022-09-03T07:21:51.060Z,16.26
2022-09-03T07:22:50.608Z,16.31
2022-09-03T07:23:50.568Z,16.34
2022-09-03T07:24:50.557Z,16.35
2022-09-03T07:25:50.545Z,16.36
2022-09-03T07:26:50.531Z,16.35
2022-09-03T07:27:50.531Z,16.32
2022-09-03T07:28:50.511Z,16.44
2022-09-03T07:29:50.508Z,16.51
2022-09-03T07:30:50.486Z,16.47
2022-09-03T07:31:50.545Z,16.54
2022-09-03T07:32:50.489Z,16.54
2022-09-03T07:33:50.458Z,16.65
2022-09-03T07:34:50.444Z,16.69
2022-09-03T07:35:50.429Z,16.74
2022-09-03T07:36:50.417Z,16.87
2022-09-03T07:37:50.412Z,16.93
2022-09-03T07:38:50.392Z,16.98
2022-09-03T07:39:50.469Z,16.96
2022-09-03T07:40:50.382Z,17.16
2022-09-03T07:41:50.394Z,17.04
2022-09-03T07:42:54.597Z,17.22
2022-09-03T07:43:50.334Z,17.29
2022-09-03T07:44:50.329Z,17.33
2022-09-03T07:45:50.441Z,17.27
2022-09-03T07:46:50.505Z,17.30
2022-09-03T07:47:50.297Z,17.33
2022-09-03T07:48:50.284Z,17.39
2022-09-03T07:49:50.279Z,17.33
2022-09-03T07:50:50.257Z,17.35
2022-09-03T07:51:50.256Z,17.42
2022-09-03T07:52:50.254Z,17.51
2022-09-03T07:53:50.222Z,17.60
2022-09-03T07:54:50.214Z,17.63
2022-09-03T07:55:50.202Z,17.75
2022-09-03T07:56:50.189Z,17.73
2022-09-03T07:57:50.193Z,17.78
2022-09-03T07:58:50.170Z,17.79
2022-09-03T07:59:50.167Z,17.83
2022-09-03T08:00:50.254Z,17.82
2022-09-03T08:01:50.139Z,17.91
2022-09-03T08:02:50.136Z,17.91
2022-09-03T08:03:50.182Z,17.82
2022-09-03T08:04:50.092Z,17.95
2022-09-03T08:05:50.090Z,17.94
2022-09-03T08:06:50.080Z,17.86
2022-09-03T08:07:50.080Z,17.94
2022-09-03T08:08:50.054Z,17.86
2022-09-03T08:09:50.052Z,17.80
2022-09-03T08:10:50.029Z,17.78
2022-09-03T08:11:50.082Z,17.75
2022-09-03T08:12:50.010Z,17.83
2022-09-03T08:13:50.014Z,17.91
2022-09-03T08:14:49.987Z,17.89
2022-09-03T08:15:50.011Z,17.91
2022-09-03T08:16:49.974Z,18.03
2022-09-03T08:17:49.963Z,18.01
2022-09-03T08:18:49.953Z,18.03
2022-09-03T08:19:49.933Z,18.13
2022-09-03T08:20:49.928Z,18.10
2022-09-03T08:21:49.913Z,18.10
2022-09-03T08:22:49.907Z,18.12
2022-09-03T08:23:49.909Z,18.09
2022-09-03T08:24:49.877Z,18.30
2022-09-03T08:25:49.863Z,18.31
2022-09-03T08:26:52.059Z,18.38
2022-09-03T08:27:49.840Z,18.37
2022-09-03T08:28:49.846Z,18.56
2022-09-03T08:29:49.816Z,18.55
2022-09-03T08:30:49.819Z,18.62
2022-09-03T08:31:50.005Z,18.68
2022-09-03T08:32:49.787Z,18.78
2022-09-03T08:33:49.795Z,18.95
2022-09-03T08:34:49.781Z,18.90
2022-09-03T08:35:49.864Z,18.90
2022-09-03T08:36:49.740Z,18.98
2022-09-03T08:37:51.781Z,18.98
2022-09-03T08:38:50.798Z,19.08
2022-09-03T08:39:49.875Z,19.14
2022-09-03T08:40:49.689Z,19.27
2022-09-03T08:41:49.699Z,19.33
2022-09-03T08:42:49.687Z,19.34
2022-09-03T08:43:49.674Z,19.42
2022-09-03T08:44:49.653Z,19.42
2022-09-03T08:45:49.630Z,19.54
2022-09-03T08:46:49.670Z,19.49
2022-09-03T08:47:49.608Z,19.59
2022-09-03T08:48:49.620Z,19.69
2022-09-03T08:49:49.603Z,19.67
2022-09-03T08:50:49.575Z,19.85
2022-09-03T08:51:49.568Z,19.96
2022-09-03T08:52:49.557Z,20.22
2022-09-03T08:53:49.576Z,20.41
2022-09-03T08:54:49.539Z,20.81
2022-09-03T08:55:49.517Z,21.37
2022-09-03T08:56:49.514Z,21.85
2022-09-03T08:57:49.502Z,22.32
2022-09-03T08:58:49.513Z,22.75
2022-09-03T08:59:49.476Z,23.14
2022-09-03T09:00:49.472Z,23.37
2022-09-03T09:01:49.563Z,23.37
2022-09-03T09:02:49.519Z,23.46
2022-09-03T09:03:49.448Z,23.59
2022-09-03T09:04:49.434Z,23.71
2022-09-03T09:05:49.445Z,23.96
2022-09-03T09:06:49.398Z,24.20
2022-09-03T09:07:49.383Z,24.30
2022-09-03T09:08:49.520Z,24.36
2022-09-03T09:09:49.362Z,24.40
2022-09-03T09:10:49.358Z,24.62
2022-09-03T09:11:49.367Z,24.70
2022-09-03T09:12:49.333Z,24.76
2022-09-03T09:13:49.326Z,24.95
2022-09-03T09:14:49.333Z,25.07
2022-09-03T09:15:49.362Z,25.20
2022-09-03T09:16:49.299Z,25.23
2022-09-03T09:17:49.274Z,25.38
2022-09-03T09:18:49.266Z,25.60
2022-09-03T09:19:49.272Z,25.69
2022-09-03T09:20:49.240Z,25.69
2022-09-03T09:21:49.233Z,25.75
2022-09-03T09:22:49.226Z,25.88
2022-09-03T09:23:49.214Z,25.93
2022-09-03T09:24:49.196Z,26.04
2022-09-03T09:25:49.203Z,26.11
2022-09-03T09:26:49.182Z,25.99
2022-09-03T09:27:49.172Z,25.96
2022-09-03T09:28:51.023Z,26.07
2022-09-03T09:29:49.167Z,26.15
2022-09-03T09:30:49.183Z,26.22
2022-09-03T09:31:49.148Z,26.16
2022-09-03T09:32:49.113Z,26.16
2022-09-03T09:33:49.109Z,26.19
2022-09-03T09:34:52.272Z,26.19
2022-09-03T09:35:49.096Z,26.33
2022-09-03T09:36:49.072Z,26.55
2022-09-03T09:37:49.057Z,26.67
2022-09-03T09:38:49.049Z,26.97
2022-09-03T09:39:49.081Z,27.12
2022-09-03T09:40:49.043Z,27.48
2022-09-03T09:41:49.011Z,27.42
2022-09-03T09:42:49.004Z,27.58
2022-09-03T09:43:48.994Z,27.72
2022-09-03T09:44:48.980Z,27.87
2022-09-03T09:45:48.990Z,27.97
2022-09-03T09:46:54.086Z,27.95
2022-09-03T09:47:49.950Z,27.93
2022-09-03T09:48:48.938Z,28.02
2022-09-03T09:49:48.921Z,28.04
2022-09-03T09:50:48.931Z,28.17
2022-09-03T09:51:48.904Z,28.29
2022-09-03T09:52:50.680Z,28.48
2022-09-03T09:53:48.877Z,28.69
2022-09-03T09:54:48.868Z,28.98
2022-09-03T09:55:48.859Z,29.33
2022-09-03T09:56:48.871Z,29.65
2022-09-03T09:57:48.839Z,30.02
2022-09-03T09:58:48.830Z,30.20
2022-09-03T09:59:48.817Z,30.45
2022-09-03T10:00:48.807Z,30.75
2022-09-03T10:01:48.882Z,31.09
2022-09-03T10:02:48.854Z,31.24
2022-09-03T10:03:48.778Z,31.30
2022-09-03T10:04:48.763Z,31.37
2022-09-03T10:05:48.757Z,31.49
2022-09-03T10:06:48.766Z,31.51
2022-09-03T10:07:48.732Z,31.59
2022-09-03T10:08:48.730Z,31.67
2022-09-03T10:09:48.707Z,31.77
2022-09-03T10:10:48.711Z,31.94
2022-09-03T10:11:48.701Z,32.13
2022-09-03T10:12:48.682Z,32.34
2022-09-03T10:13:48.668Z,32.62
2022-09-03T10:14:48.660Z,32.89
2022-09-03T10:15:48.700Z,32.86
2022-09-03T10:16:48.639Z,32.74
2022-09-03T10:17:48.633Z,32.89
2022-09-03T10:18:48.615Z,32.91
2022-09-03T10:19:48.634Z,32.90
2022-09-03T10:20:48.637Z,32.74
2022-09-03T10:21:48.607Z,32.64
2022-09-03T10:22:56.545Z,32.64
2022-09-03T10:23:49.562Z,32.67
2022-09-03T10:24:48.552Z,32.79
2022-09-03T10:25:48.547Z,32.84
2022-09-03T10:26:48.533Z,32.99
2022-09-03T10:27:48.533Z,33.36
2022-09-03T10:28:48.517Z,33.59
2022-09-03T10:29:48.505Z,33.73
2022-09-03T10:30:48.531Z,33.96
2022-09-03T10:31:48.475Z,34.12
2022-09-03T10:32:48.687Z,34.27
2022-09-03T10:33:48.486Z,34.45
2022-09-03T10:34:48.445Z,34.79
2022-09-03T10:35:48.440Z,34.82
2022-09-03T10:36:48.427Z,34.70
2022-09-03T10:37:48.430Z,34.72
2022-09-03T10:38:48.421Z,34.63
2022-09-03T10:39:52.127Z,34.67
2022-09-03T10:40:48.391Z,34.70
2022-09-03T10:41:48.384Z,35.05
2022-09-03T10:42:48.397Z,34.87
2022-09-03T10:43:48.363Z,34.58
2022-09-03T10:44:48.372Z,34.24
2022-09-03T10:45:48.335Z,33.54
2022-09-03T10:46:48.383Z,32.84
2022-09-03T10:47:48.315Z,32.03
2022-09-03T10:48:48.313Z,31.44
2022-09-03T10:49:48.342Z,30.78
2022-09-03T10:50:48.289Z,30.12
2022-09-03T10:51:49.699Z,29.70
2022-09-03T10:52:48.270Z,29.21
2022-09-03T10:53:48.256Z,28.69
2022-09-03T10:54:48.238Z,28.46
2022-09-03T10:55:48.240Z,28.16
2022-09-03T10:56:48.222Z,27.60
2022-09-03T10:57:48.208Z,27.44
2022-09-03T10:58:48.194Z,27.22
2022-09-03T10:59:48.195Z,27.08
2022-09-03T11:00:48.192Z,27.09
2022-09-03T11:01:48.224Z,27.17
2022-09-03T11:02:48.197Z,27.09
2022-09-03T11:03:48.148Z,26.95
2022-09-03T11:04:48.137Z,26.82
2022-09-03T11:05:48.137Z,26.95
2022-09-03T11:06:48.112Z,26.86
2022-09-03T11:07:48.110Z,26.82
2022-09-03T11:08:48.092Z,26.65
2022-09-03T11:09:48.086Z,26.44
2022-09-03T11:10:48.090Z,26.20
2022-09-03T11:11:48.061Z,25.97
2022-09-03T11:12:48.050Z,25.77
2022-09-03T11:13:48.032Z,25.56
2022-09-03T11:14:48.039Z,25.48
2022-09-03T11:15:48.045Z,25.30
2022-09-03T11:16:48.015Z,25.11
2022-09-03T11:17:47.988Z,25.10
2022-09-03T11:18:47.986Z,25.13
2022-09-03T11:19:47.970Z,25.04
2022-09-03T11:20:47.956Z,25.06
2022-09-03T11:21:47.958Z,25.06
2022-09-03T11:22:47.934Z,25.08
2022-09-03T11:23:47.923Z,25.15
2022-09-03T11:24:47.915Z,25.37
2022-09-03T11:25:47.903Z,25.45
2022-09-03T11:26:47.913Z,25.41
2022-09-03T11:27:47.885Z,25.41
2022-09-03T11:28:47.890Z,25.30
2022-09-03T11:29:47.854Z,25.14
2022-09-03T11:30:47.874Z,24.98
2022-09-03T11:31:47.863Z,24.70
2022-09-03T11:32:47.824Z,24.57
2022-09-03T11:33:47.847Z,24.55
2022-09-03T11:34:47.810Z,24.54
2022-09-03T11:35:47.789Z,24.66
2022-09-03T11:36:48.175Z,24.78
2022-09-03T11:37:47.789Z,24.83
2022-09-03T11:38:47.757Z,24.81
2022-09-03T11:39:47.810Z,24.96
2022-09-03T11:40:47.734Z,24.96
2022-09-03T11:41:47.725Z,24.89
2022-09-03T11:42:47.746Z,24.88
2022-09-03T11:43:47.697Z,24.82
2022-09-03T11:44:51.137Z,24.70
2022-09-03T11:45:47.734Z,24.55
2022-09-03T11:46:47.676Z,24.47
2022-09-03T11:47:47.681Z,24.39
2022-09-03T11:48:47.647Z,24.26
2022-09-03T11:49:47.630Z,24.08
2022-09-03T11:50:47.631Z,24.00
2022-09-03T11:51:47.607Z,24.03
2022-09-03T11:52:47.604Z,24.03
2022-09-03T11:53:47.599Z,24.07
2022-09-03T11:54:47.578Z,24.25
2022-09-03T11:55:47.580Z,24.45
2022-09-03T11:56:47.549Z,24.40
2022-09-03T11:57:47.545Z,24.50
2022-09-03T11:58:47.547Z,24.37
2022-09-03T11:59:47.520Z,24.30
2022-09-03T12:00:47.511Z,24.17
2022-09-03T12:01:47.503Z,24.10
2022-09-03T12:02:47.563Z,24.00
2022-09-03T12:03:47.487Z,23.90
2022-09-03T12:04:47.518Z,23.77
2022-09-03T12:05:47.456Z,23.77
2022-09-03T12:06:47.441Z,23.56
2022-09-03T12:07:47.427Z,23.51
2022-09-03T12:08:47.419Z,23.47
2022-09-03T12:09:47.425Z,23.47
2022-09-03T12:10:47.398Z,23.37
2022-09-03T12:11:47.384Z,23.34
2022-09-03T12:12:47.376Z,23.36
2022-09-03T12:13:47.403Z,23.31
2022-09-03T12:14:47.364Z,23.22
2022-09-03T12:15:47.364Z,23.18
2022-09-03T12:16:48.014Z,23.25
2022-09-03T12:17:47.319Z,23.18
2022-09-03T12:18:47.306Z,23.18
2022-09-03T12:19:47.309Z,23.09
2022-09-03T12:20:47.283Z,23.13
2022-09-03T12:21:47.273Z,23.21
2022-09-03T12:22:47.308Z,23.17
2022-09-03T12:23:47.248Z,23.17
2022-09-03T12:24:47.235Z,23.20
2022-09-03T12:25:47.241Z,23.31
2022-09-03T12:26:47.219Z,23.31
2022-09-03T12:27:47.208Z,23.37
2022-09-03T12:28:47.194Z,23.28
2022-09-03T12:29:47.183Z,23.40
2022-09-03T12:30:47.255Z,23.34
2022-09-03T12:31:47.164Z,23.33
2022-09-03T12:32:47.150Z,23.37
2022-09-03T12:33:47.142Z,23.34
2022-09-03T12:34:47.127Z,23.38
2022-09-03T12:36:02.383Z,23.36
2022-09-03T12:36:48.102Z,23.38
2022-09-03T12:39:10.472Z,23.38
2022-09-03T12:41:48.088Z,23.44
2022-09-03T12:42:47.046Z,23.55
2022-09-03T12:43:50.314Z,23.61
2022-09-03T12:44:47.016Z,23.68
2022-09-03T12:46:48.294Z,23.83
2022-09-03T12:47:47.053Z,24.02
2022-09-03T12:48:47.154Z,24.17
2022-09-03T12:49:46.955Z,24.29
2022-09-03T12:50:49.475Z,24.28
2022-09-03T12:51:50.856Z,24.28
2022-09-03T12:52:47.937Z,24.28
2022-09-03T12:53:46.918Z,24.21
2022-09-03T12:54:50.257Z,24.18
2022-09-03T12:55:46.897Z,24.10
2022-09-03T12:56:47.336Z,24.02